sensor_id;sensor_type;location;lat;lon;timestamp;pressure;altitude;pressure_sealevel;temperature;humidity
73767;BME280;62074;43.530;-5.646;2022-09-01T00:00:59;101682.78;;;19.84;77.35
73767;BME280;62074;43.530;-5.646;2022-09-01T00:03:25;101690.88;;;19.85;77.89
73767;BME280;62074;43.530;-5.646;2022-09-01T00:05:51;101683.88;;;19.61;78.48
73767;BME280;62074;43.530;-5.646;2022-09-01T00:08:20;101689.34;;;19.56;78.52
73767;BME280;62074;43.530;-5.646;2022-09-01T00:10:46;101680.69;;;19.52;78.89
73767;BME280;62074;43.530;-5.646;2022-09-01T00:13:12;101678.56;;;19.59;78.35
73767;BME280;62074;43.530;-5.646;2022-09-01T00:15:38;101671.38;;;19.63;77.88
73767;BME280;62074;43.530;-5.646;2022-09-01T00:18:04;101667.47;;;19.43;79.04
73767;BME280;62074;43.530;-5.646;2022-09-01T00:20:29;101668.56;;;19.58;78.53
73767;BME280;62074;43.530;-5.646;2022-09-01T00:22:55;101662.50;;;19.61;78.14
73767;BME280;62074;43.530;-5.646;2022-09-01T00:25:21;101661.56;;;19.56;78.02
73767;BME280;62074;43.530;-5.646;2022-09-01T00:27:49;101651.03;;;19.58;77.80
73767;BME280;62074;43.530;-5.646;2022-09-01T00:30:15;101653.31;;;19.61;77.59
73767;BME280;62074;43.530;-5.646;2022-09-01T00:32:41;101654.06;;;19.56;77.66
73767;BME280;62074;43.530;-5.646;2022-09-01T00:35:15;101652.41;;;19.55;77.60
73767;BME280;62074;43.530;-5.646;2022-09-01T00:37:41;101649.28;;;19.52;77.54
73767;BME280;62074;43.530;-5.646;2022-09-01T00:40:08;101646.13;;;19.48;78.26
73767;BME280;62074;43.530;-5.646;2022-09-01T00:42:34;101641.66;;;19.47;77.95
73767;BME280;62074;43.530;-5.646;2022-09-01T00:45:00;101637.81;;;19.48;77.60
73767;BME280;62074;43.530;-5.646;2022-09-01T00:47:25;101624.28;;;19.35;78.44
73767;BME280;62074;43.530;-5.646;2022-09-01T00:49:51;101629.72;;;19.47;77.99
73767;BME280;62074;43.530;-5.646;2022-09-01T00:52:21;101622.81;;;19.49;77.96
73767;BME280;62074;43.530;-5.646;2022-09-01T00:54:51;101624.97;;;19.42;77.72
73767;BME280;62074;43.530;-5.646;2022-09-01T00:57:18;101611.41;;;19.29;78.07
73767;BME280;62074;43.530;-5.646;2022-09-01T00:59:53;101611.88;;;19.21;78.63
73767;BME280;62074;43.530;-5.646;2022-09-01T01:02:20;101606.38;;;19.09;78.75
73767;BME280;62074;43.530;-5.646;2022-09-01T01:04:47;101622.63;;;19.17;78.77
73767;BME280;62074;43.530;-5.646;2022-09-01T01:07:14;101616.31;;;19.22;78.37
73767;BME280;62074;43.530;-5.646;2022-09-01T01:09:43;101610.00;;;19.10;78.67
73767;BME280;62074;43.530;-5.646;2022-09-01T01:12:10;101600.59;;;18.94;78.84
73767;BME280;62074;43.530;-5.646;2022-09-01T01:14:38;101608.09;;;18.93;78.71
73767;BME280;62074;43.530;-5.646;2022-09-01T01:17:06;101613.88;;;18.92;78.59
73767;BME280;62074;43.530;-5.646;2022-09-01T01:19:35;101603.88;;;18.74;79.46
73767;BME280;62074;43.530;-5.646;2022-09-01T01:22:28;101602.16;;;18.56;80.00
73767;BME280;62074;43.530;-5.646;2022-09-01T01:25:15;101595.59;;;18.46;80.27
73767;BME280;62074;43.530;-5.646;2022-09-01T01:27:43;101598.28;;;18.57;80.06
73767;BME280;62074;43.530;-5.646;2022-09-01T01:30:10;101609.69;;;18.73;79.72
73767;BME280;62074;43.530;-5.646;2022-09-01T01:32:38;101603.72;;;18.81;79.12
73767;BME280;62074;43.530;-5.646;2022-09-01T01:35:11;101605.41;;;18.82;78.96
73767;BME280;62074;43.530;-5.646;2022-09-01T01:37:44;101603.22;;;18.84;78.76
73767;BME280;62074;43.530;-5.646;2022-09-01T01:40:18;101599.09;;;18.86;78.77
73767;BME280;62074;43.530;-5.646;2022-09-01T01:42:50;101589.50;;;18.77;78.93
73767;BME280;62074;43.530;-5.646;2022-09-01T01:45:26;101589.84;;;18.81;78.95
73767;BME280;62074;43.530;-5.646;2022-09-01T01:47:53;101587.13;;;18.86;78.56
73767;BME280;62074;43.530;-5.646;2022-09-01T01:50:25;101590.84;;;18.91;78.50
73767;BME280;62074;43.530;-5.646;2022-09-01T01:52:52;101595.91;;;18.94;78.44
73767;BME280;62074;43.530;-5.646;2022-09-01T01:55:20;101593.13;;;18.94;77.97
73767;BME280;62074;43.530;-5.646;2022-09-01T01:57:47;101596.66;;;18.90;78.37
73767;BME280;62074;43.530;-5.646;2022-09-01T02:00:17;101594.56;;;18.80;78.37
73767;BME280;62074;43.530;-5.646;2022-09-01T02:02:48;101571.19;;;18.59;78.83
73767;BME280;62074;43.530;-5.646;2022-09-01T02:05:21;101592.63;;;18.64;79.09
73767;BME280;62074;43.530;-5.646;2022-09-01T02:07:53;101587.81;;;18.59;79.20
73767;BME280;62074;43.530;-5.646;2022-09-01T02:10:22;101578.66;;;18.59;79.04
73767;BME280;62074;43.530;-5.646;2022-09-01T02:12:49;101572.53;;;18.74;78.71
73767;BME280;62074;43.530;-5.646;2022-09-01T02:15:14;101561.34;;;18.69;78.74
73767;BME280;62074;43.530;-5.646;2022-09-01T02:17:40;101542.81;;;18.57;77.88
73767;BME280;62074;43.530;-5.646;2022-09-01T02:20:08;101578.22;;;18.67;78.67
73767;BME280;62074;43.530;-5.646;2022-09-01T02:22:34;101573.13;;;18.59;78.84
73767;BME280;62074;43.530;-5.646;2022-09-01T02:25:03;101577.31;;;18.61;79.26
73767;BME280;62074;43.530;-5.646;2022-09-01T02:27:28;101567.91;;;18.62;78.30
73767;BME280;62074;43.530;-5.646;2022-09-01T02:29:54;101573.38;;;18.74;78.31
73767;BME280;62074;43.530;-5.646;2022-09-01T02:32:20;101557.09;;;18.49;78.32
73767;BME280;62074;43.530;-5.646;2022-09-01T02:34:49;101571.53;;;18.63;78.31
73767;BME280;62074;43.530;-5.646;2022-09-01T02:37:21;101555.25;;;18.55;78.34
73767;BME280;62074;43.530;-5.646;2022-09-01T02:39:51;101563.00;;;18.53;78.70
73767;BME280;62074;43.530;-5.646;2022-09-01T02:42:18;101559.63;;;18.51;78.29
73767;BME280;62074;43.530;-5.646;2022-09-01T02:44:46;101555.59;;;18.42;78.37
73767;BME280;62074;43.530;-5.646;2022-09-01T02:47:12;101554.28;;;18.16;79.33
73767;BME280;62074;43.530;-5.646;2022-09-01T02:49:37;101560.28;;;18.24;79.59
73767;BME280;62074;43.530;-5.646;2022-09-01T02:52:06;101564.31;;;18.34;78.90
73767;BME280;62074;43.530;-5.646;2022-09-01T02:54:32;101547.56;;;18.28;78.78
73767;BME280;62074;43.530;-5.646;2022-09-01T02:56:58;101558.59;;;18.23;79.09
73767;BME280;62074;43.530;-5.646;2022-09-01T02:59:26;101546.72;;;18.28;78.90
73767;BME280;62074;43.530;-5.646;2022-09-01T03:01:53;101550.03;;;18.25;78.82
73767;BME280;62074;43.530;-5.646;2022-09-01T03:04:20;101563.66;;;18.26;79.21
73767;BME280;62074;43.530;-5.646;2022-09-01T03:06:47;101553.53;;;18.20;79.49
73767;BME280;62074;43.530;-5.646;2022-09-01T03:09:17;101557.44;;;18.36;78.76
73767;BME280;62074;43.530;-5.646;2022-09-01T03:11:45;101551.13;;;18.41;79.00
73767;BME280;62074;43.530;-5.646;2022-09-01T03:14:12;101544.16;;;18.38;78.49
73767;BME280;62074;43.530;-5.646;2022-09-01T03:16:38;101540.44;;;18.33;78.83
73767;BME280;62074;43.530;-5.646;2022-09-01T03:19:05;101547.09;;;18.48;78.27
73767;BME280;62074;43.530;-5.646;2022-09-01T03:21:38;101547.19;;;18.37;78.73
73767;BME280;62074;43.530;-5.646;2022-09-01T03:24:06;101552.47;;;18.38;78.83
73767;BME280;62074;43.530;-5.646;2022-09-01T03:26:34;101539.81;;;18.42;78.58
73767;BME280;62074;43.530;-5.646;2022-09-01T03:29:01;101523.31;;;18.36;78.24
73767;BME280;62074;43.530;-5.646;2022-09-01T03:31:27;101519.31;;;18.43;77.82
73767;BME280;62074;43.530;-5.646;2022-09-01T03:33:56;101530.88;;;18.40;78.39
73767;BME280;62074;43.530;-5.646;2022-09-01T03:36:23;101521.13;;;18.38;78.32
73767;BME280;62074;43.530;-5.646;2022-09-01T03:38:50;101511.72;;;18.39;78.39
73767;BME280;62074;43.530;-5.646;2022-09-01T03:41:18;101518.78;;;18.29;78.58
73767;BME280;62074;43.530;-5.646;2022-09-01T03:43:46;101510.78;;;18.16;79.39
73767;BME280;62074;43.530;-5.646;2022-09-01T03:46:12;101515.25;;;18.17;79.22
73767;BME280;62074;43.530;-5.646;2022-09-01T03:48:44;101512.91;;;18.26;78.89
73767;BME280;62074;43.530;-5.646;2022-09-01T03:51:11;101522.91;;;18.27;78.84
73767;BME280;62074;43.530;-5.646;2022-09-01T03:53:38;101512.72;;;18.16;78.90
73767;BME280;62074;43.530;-5.646;2022-09-01T03:56:05;101515.25;;;18.17;79.08
73767;BME280;62074;43.530;-5.646;2022-09-01T03:58:31;101517.31;;;18.10;79.37
73767;BME280;62074;43.530;-5.646;2022-09-01T04:00:58;101522.28;;;18.08;78.64
73767;BME280;62074;43.530;-5.646;2022-09-01T04:03:28;101513.38;;;18.06;79.16
73767;BME280;62074;43.530;-5.646;2022-09-01T04:05:56;101510.94;;;18.10;78.85
73767;BME280;62074;43.530;-5.646;2022-09-01T04:08:22;101508.97;;;17.93;79.90
73767;BME280;62074;43.530;-5.646;2022-09-01T04:10:58;101519.41;;;18.03;79.32
73767;BME280;62074;43.530;-5.646;2022-09-01T04:13:28;101517.63;;;17.97;79.79
73767;BME280;62074;43.530;-5.646;2022-09-01T04:15:56;101513.44;;;17.94;79.59
73767;BME280;62074;43.530;-5.646;2022-09-01T04:18:21;101509.81;;;17.94;79.61
73767;BME280;62074;43.530;-5.646;2022-09-01T04:20:56;101498.59;;;18.01;79.00
73767;BME280;62074;43.530;-5.646;2022-09-01T04:23:24;101504.75;;;17.91;79.75
73767;BME280;62074;43.530;-5.646;2022-09-01T04:25:56;101502.53;;;17.88;79.49
73767;BME280;62074;43.530;-5.646;2022-09-01T04:28:29;101502.91;;;17.80;79.43
73767;BME280;62074;43.530;-5.646;2022-09-01T04:30:57;101503.19;;;17.95;79.27
73767;BME280;62074;43.530;-5.646;2022-09-01T04:33:25;101493.44;;;17.92;79.31
73767;BME280;62074;43.530;-5.646;2022-09-01T04:35:52;101484.22;;;17.87;79.68
73767;BME280;62074;43.530;-5.646;2022-09-01T04:38:23;101492.41;;;17.82;79.55
73767;BME280;62074;43.530;-5.646;2022-09-01T04:40:49;101497.13;;;17.81;79.75
73767;BME280;62074;43.530;-5.646;2022-09-01T04:43:15;101485.09;;;17.76;80.02
73767;BME280;62074;43.530;-5.646;2022-09-01T04:45:41;101482.31;;;17.76;79.98
73767;BME280;62074;43.530;-5.646;2022-09-01T04:48:07;101486.78;;;17.77;79.93
73767;BME280;62074;43.530;-5.646;2022-09-01T04:50:33;101477.69;;;17.65;80.22
73767;BME280;62074;43.530;-5.646;2022-09-01T04:53:01;101481.47;;;17.75;79.79
73767;BME280;62074;43.530;-5.646;2022-09-01T04:55:29;101477.53;;;17.71;80.12
73767;BME280;62074;43.530;-5.646;2022-09-01T04:57:58;101473.03;;;17.82;79.46
73767;BME280;62074;43.530;-5.646;2022-09-01T05:00:26;101475.56;;;17.83;79.08
73767;BME280;62074;43.530;-5.646;2022-09-01T05:03:01;101476.13;;;17.69;79.60
73767;BME280;62074;43.530;-5.646;2022-09-01T05:05:35;101471.97;;;17.71;79.19
73767;BME280;62074;43.530;-5.646;2022-09-01T05:08:05;101469.56;;;17.75;79.66
73767;BME280;62074;43.530;-5.646;2022-09-01T05:10:31;101460.16;;;17.76;79.23
73767;BME280;62074;43.530;-5.646;2022-09-01T05:12:58;101464.38;;;17.78;79.20
73767;BME280;62074;43.530;-5.646;2022-09-01T05:15:26;101470.88;;;17.72;79.71
73767;BME280;62074;43.530;-5.646;2022-09-01T05:17:51;101465.03;;;17.69;79.46
73767;BME280;62074;43.530;-5.646;2022-09-01T05:20:18;101472.94;;;17.77;79.06
73767;BME280;62074;43.530;-5.646;2022-09-01T05:22:45;101473.03;;;17.82;79.11
73767;BME280;62074;43.530;-5.646;2022-09-01T05:25:11;101461.78;;;17.60;79.63
73767;BME280;62074;43.530;-5.646;2022-09-01T05:27:41;101466.63;;;17.65;79.65
73767;BME280;62074;43.530;-5.646;2022-09-01T05:30:14;101471.06;;;17.66;79.71
73767;BME280;62074;43.530;-5.646;2022-09-01T05:32:41;101465.19;;;17.50;80.33
73767;BME280;62074;43.530;-5.646;2022-09-01T05:35:08;101465.38;;;17.60;80.37
73767;BME280;62074;43.530;-5.646;2022-09-01T05:37:37;101463.09;;;17.57;80.45
73767;BME280;62074;43.530;-5.646;2022-09-01T05:40:06;101454.25;;;17.44;80.95
73767;BME280;62074;43.530;-5.646;2022-09-01T05:42:34;101465.94;;;17.46;81.06
73767;BME280;62074;43.530;-5.646;2022-09-01T05:45:01;101448.84;;;17.37;81.17
73767;BME280;62074;43.530;-5.646;2022-09-01T05:47:28;101460.88;;;17.43;81.11
73767;BME280;62074;43.530;-5.646;2022-09-01T05:49:54;101471.06;;;17.66;80.52
73767;BME280;62074;43.530;-5.646;2022-09-01T05:52:22;101459.34;;;17.64;80.38
73767;BME280;62074;43.530;-5.646;2022-09-01T05:54:50;101479.19;;;17.72;79.97
73767;BME280;62074;43.530;-5.646;2022-09-01T05:57:17;101476.69;;;17.71;80.31
73767;BME280;62074;43.530;-5.646;2022-09-01T05:59:44;101479.44;;;17.71;80.73
73767;BME280;62074;43.530;-5.646;2022-09-01T06:02:11;101479.56;;;17.76;80.11
73767;BME280;62074;43.530;-5.646;2022-09-01T06:04:37;101490.25;;;17.84;80.12
73767;BME280;62074;43.530;-5.646;2022-09-01T06:07:14;101477.88;;;17.75;80.16
73767;BME280;62074;43.530;-5.646;2022-09-01T06:09:43;101482.72;;;17.56;80.76
73767;BME280;62074;43.530;-5.646;2022-09-01T06:12:10;101466.19;;;17.33;81.19
73767;BME280;62074;43.530;-5.646;2022-09-01T06:14:43;101477.75;;;17.41;81.12
73767;BME280;62074;43.530;-5.646;2022-09-01T06:17:09;101480.50;;;17.41;81.54
73767;BME280;62074;43.530;-5.646;2022-09-01T06:19:36;101472.44;;;17.40;81.52
73767;BME280;62074;43.530;-5.646;2022-09-01T06:22:04;101471.22;;;17.47;80.82
73767;BME280;62074;43.530;-5.646;2022-09-01T06:24:29;101480.38;;;17.48;81.04
73767;BME280;62074;43.530;-5.646;2022-09-01T06:26:55;101480.63;;;17.46;80.99
73767;BME280;62074;43.530;-5.646;2022-09-01T06:29:20;101472.16;;;17.53;80.52
73767;BME280;62074;43.530;-5.646;2022-09-01T06:31:46;101464.03;;;17.35;80.84
73767;BME280;62074;43.530;-5.646;2022-09-01T06:34:15;101475.03;;;17.58;80.31
73767;BME280;62074;43.530;-5.646;2022-09-01T06:36:43;101469.84;;;17.61;79.95
73767;BME280;62074;43.530;-5.646;2022-09-01T06:39:10;101477.03;;;17.74;79.49
73767;BME280;62074;43.530;-5.646;2022-09-01T06:41:47;101471.72;;;17.44;80.93
73767;BME280;62074;43.530;-5.646;2022-09-01T06:44:14;101467.66;;;17.64;79.77
73767;BME280;62074;43.530;-5.646;2022-09-01T06:46:39;101482.81;;;17.73;79.17
73767;BME280;62074;43.530;-5.646;2022-09-01T06:49:05;101462.25;;;17.69;79.30
73767;BME280;62074;43.530;-5.646;2022-09-01T06:51:36;101487.97;;;17.81;79.11
73767;BME280;62074;43.530;-5.646;2022-09-01T06:54:02;101475.03;;;17.70;79.59
73767;BME280;62074;43.530;-5.646;2022-09-01T06:56:29;101481.66;;;17.69;79.77
73767;BME280;62074;43.530;-5.646;2022-09-01T06:58:56;101478.09;;;17.33;81.19
73767;BME280;62074;43.530;-5.646;2022-09-01T07:01:23;101482.50;;;17.57;81.13
73767;BME280;62074;43.530;-5.646;2022-09-01T07:03:53;101475.38;;;17.61;80.50
73767;BME280;62074;43.530;-5.646;2022-09-01T07:06:20;101480.16;;;17.78;80.10
73767;BME280;62074;43.530;-5.646;2022-09-01T07:08:52;101480.63;;;17.75;79.93
73767;BME280;62074;43.530;-5.646;2022-09-01T07:11:23;101477.88;;;17.75;79.88
73767;BME280;62074;43.530;-5.646;2022-09-01T07:13:51;101478.72;;;17.35;81.52
73767;BME280;62074;43.530;-5.646;2022-09-01T07:16:20;101477.53;;;17.31;81.83
73767;BME280;62074;43.530;-5.646;2022-09-01T07:18:53;101473.94;;;17.31;81.73
73767;BME280;62074;43.530;-5.646;2022-09-01T07:21:25;101480.50;;;17.41;81.79
73767;BME280;62074;43.530;-5.646;2022-09-01T07:23:51;101474.06;;;17.52;80.98
73767;BME280;62074;43.530;-5.646;2022-09-01T07:26:17;101476.94;;;17.69;80.46
73767;BME280;62074;43.530;-5.646;2022-09-01T07:28:48;101491.69;;;17.86;79.95
73767;BME280;62074;43.530;-5.646;2022-09-01T07:31:38;101491.72;;;18.03;79.60
73767;BME280;62074;43.530;-5.646;2022-09-01T07:34:08;101479.19;;;18.01;79.26
73767;BME280;62074;43.530;-5.646;2022-09-01T07:36:34;101488.69;;;18.05;79.04
73767;BME280;62074;43.530;-5.646;2022-09-01T07:39:02;101482.72;;;18.13;78.70
73767;BME280;62074;43.530;-5.646;2022-09-01T07:41:28;101491.88;;;18.30;78.56
73767;BME280;62074;43.530;-5.646;2022-09-01T07:43:54;101489.88;;;18.09;80.28
73767;BME280;62074;43.530;-5.646;2022-09-01T07:46:24;101481.28;;;18.10;80.61
73767;BME280;62074;43.530;-5.646;2022-09-01T07:48:52;101486.69;;;18.17;80.53
73767;BME280;62074;43.530;-5.646;2022-09-01T07:51:20;101493.91;;;18.35;79.98
73767;BME280;62074;43.530;-5.646;2022-09-01T07:53:47;101484.00;;;18.39;80.79
73767;BME280;62074;43.530;-5.646;2022-09-01T07:56:16;101488.56;;;18.45;80.92
73767;BME280;62074;43.530;-5.646;2022-09-01T07:58:44;101500.47;;;18.45;80.81
73767;BME280;62074;43.530;-5.646;2022-09-01T08:01:13;101500.63;;;18.55;80.62
73767;BME280;62074;43.530;-5.646;2022-09-01T08:03:41;101498.00;;;18.60;80.74
73767;BME280;62074;43.530;-5.646;2022-09-01T08:06:09;101501.69;;;18.66;80.42
73767;BME280;62074;43.530;-5.646;2022-09-01T08:08:36;101509.81;;;18.73;80.15
73767;BME280;62074;43.530;-5.646;2022-09-01T08:11:04;101509.44;;;18.86;79.93
73767;BME280;62074;43.530;-5.646;2022-09-01T08:13:29;101504.56;;;18.93;79.36
73767;BME280;62074;43.530;-5.646;2022-09-01T08:15:55;101510.88;;;18.88;79.09
73767;BME280;62074;43.530;-5.646;2022-09-01T08:18:21;101509.44;;;18.86;79.21
73767;BME280;62074;43.530;-5.646;2022-09-01T08:20:46;101503.22;;;18.95;79.15
73767;BME280;62074;43.530;-5.646;2022-09-01T08:23:17;101507.31;;;19.10;79.07
73767;BME280;62074;43.530;-5.646;2022-09-01T08:25:45;101506.03;;;19.17;78.33
73767;BME280;62074;43.530;-5.646;2022-09-01T08:28:12;101513.03;;;19.20;78.28
73767;BME280;62074;43.530;-5.646;2022-09-01T08:30:39;101507.78;;;19.23;77.42
73767;BME280;62074;43.530;-5.646;2022-09-01T08:33:06;101493.72;;;19.30;77.50
73767;BME280;62074;43.530;-5.646;2022-09-01T08:35:38;101497.47;;;19.41;76.96
73767;BME280;62074;43.530;-5.646;2022-09-01T08:38:04;101494.00;;;19.50;76.90
73767;BME280;62074;43.530;-5.646;2022-09-01T08:40:29;101495.41;;;19.53;76.78
73767;BME280;62074;43.530;-5.646;2022-09-01T08:45:34;101493.34;;;19.43;76.73
73767;BME280;62074;43.530;-5.646;2022-09-01T08:48:39;101493.13;;;19.72;76.59
73767;BME280;62074;43.530;-5.646;2022-09-01T08:51:19;101481.94;;;19.66;76.26
73767;BME280;62074;43.530;-5.646;2022-09-01T08:53:50;101489.25;;;19.73;76.09
73767;BME280;62074;43.530;-5.646;2022-09-01T08:56:22;101489.00;;;19.74;76.46
73767;BME280;62074;43.530;-5.646;2022-09-01T08:58:48;101489.09;;;19.84;75.60
73767;BME280;62074;43.530;-5.646;2022-09-01T09:01:24;101492.78;;;19.90;75.97
73767;BME280;62074;43.530;-5.646;2022-09-01T09:04:35;101501.16;;;19.95;75.69
73767;BME280;62074;43.530;-5.646;2022-09-01T09:07:08;101493.44;;;20.02;75.51
73767;BME280;62074;43.530;-5.646;2022-09-01T09:15:39;101499.19;;;20.22;75.48
73767;BME280;62074;43.530;-5.646;2022-09-01T09:18:36;101489.75;;;20.23;75.28
73767;BME280;62074;43.530;-5.646;2022-09-01T09:21:13;101481.41;;;20.23;75.83
73767;BME280;62074;43.530;-5.646;2022-09-01T09:23:44;101492.44;;;20.40;76.17
73767;BME280;62074;43.530;-5.646;2022-09-01T09:26:10;101490.00;;;20.49;75.55
73767;BME280;62074;43.530;-5.646;2022-09-01T09:28:37;101493.47;;;20.66;73.71
73767;BME280;62074;43.530;-5.646;2022-09-01T09:33:51;101487.63;;;21.10;70.87
73767;BME280;62074;43.530;-5.646;2022-09-01T09:36:21;101491.56;;;21.14;69.74
73767;BME280;62074;43.530;-5.646;2022-09-01T09:39:03;101491.56;;;21.14;69.55
73767;BME280;62074;43.530;-5.646;2022-09-01T09:41:29;101481.22;;;21.09;69.44
73767;BME280;62074;43.530;-5.646;2022-09-01T09:44:25;101494.53;;;21.02;69.36
73767;BME280;62074;43.530;-5.646;2022-09-01T09:46:52;101482.59;;;21.07;69.85
73767;BME280;62074;43.530;-5.646;2022-09-01T09:51:54;101476.31;;;21.21;69.16
73767;BME280;62074;43.530;-5.646;2022-09-01T09:54:28;101485.53;;;21.27;69.21
73767;BME280;62074;43.530;-5.646;2022-09-01T09:59:45;101488.66;;;21.35;68.58
73767;BME280;62074;43.530;-5.646;2022-09-01T10:02:23;101486.13;;;21.39;67.56
73767;BME280;62074;43.530;-5.646;2022-09-01T10:04:50;101475.53;;;21.31;68.15
73767;BME280;62074;43.530;-5.646;2022-09-01T10:09:52;101477.53;;;21.46;67.12
73767;BME280;62074;43.530;-5.646;2022-09-01T10:12:19;101460.28;;;21.54;67.15
73767;BME280;62074;43.530;-5.646;2022-09-01T10:14:50;101468.44;;;21.81;65.47
73767;BME280;62074;43.530;-5.646;2022-09-01T10:17:21;101464.59;;;22.17;65.18
73767;BME280;62074;43.530;-5.646;2022-09-01T10:19:53;101449.28;;;23.45;61.76
73767;BME280;62074;43.530;-5.646;2022-09-01T10:22:21;101451.63;;;26.31;52.14
73767;BME280;62074;43.530;-5.646;2022-09-01T10:24:47;101444.03;;;30.07;42.61
73767;BME280;62074;43.530;-5.646;2022-09-01T10:27:23;101441.91;;;33.14;36.56
73767;BME280;62074;43.530;-5.646;2022-09-01T10:29:55;101431.28;;;35.00;32.72
73767;BME280;62074;43.530;-5.646;2022-09-01T10:32:26;101432.50;;;35.49;31.18
73767;BME280;62074;43.530;-5.646;2022-09-01T10:34:54;101439.59;;;35.90;31.28
73767;BME280;62074;43.530;-5.646;2022-09-01T10:37:21;101425.28;;;35.71;31.23
73767;BME280;62074;43.530;-5.646;2022-09-01T10:43:26;101434.78;;;36.14;30.64
73767;BME280;62074;43.530;-5.646;2022-09-01T10:45:54;101434.47;;;35.14;31.46
73767;BME280;62074;43.530;-5.646;2022-09-01T10:50:46;101437.06;;;36.24;30.15
73767;BME280;62074;43.530;-5.646;2022-09-01T11:04:07;101424.28;;;35.63;31.29
73767;BME280;62074;43.530;-5.646;2022-09-01T11:09:07;101423.81;;;36.54;30.60
73767;BME280;62074;43.530;-5.646;2022-09-01T11:14:55;101426.50;;;32.91;36.50
73767;BME280;62074;43.530;-5.646;2022-09-01T11:17:26;101418.38;;;31.02;39.86
73767;BME280;62074;43.530;-5.646;2022-09-01T11:20:21;101427.88;;;30.60;41.14
73767;BME280;62074;43.530;-5.646;2022-09-01T11:36:02;101408.31;;;28.18;48.59
73767;BME280;62074;43.530;-5.646;2022-09-01T11:38:37;101414.63;;;27.79;50.11
73767;BME280;62074;43.530;-5.646;2022-09-01T11:41:07;101413.97;;;27.82;49.92
73767;BME280;62074;43.530;-5.646;2022-09-01T11:43:34;101414.72;;;28.33;49.57
73767;BME280;62074;43.530;-5.646;2022-09-01T11:46:19;101417.03;;;28.31;48.78
73767;BME280;62074;43.530;-5.646;2022-09-01T11:48:47;101417.53;;;29.34;46.17
73767;BME280;62074;43.530;-5.646;2022-09-01T11:51:14;101411.19;;;31.72;41.20
73767;BME280;62074;43.530;-5.646;2022-09-01T11:53:41;101410.81;;;33.30;37.55
73767;BME280;62074;43.530;-5.646;2022-09-01T11:56:17;101427.13;;;32.97;38.04
73767;BME280;62074;43.530;-5.646;2022-09-01T11:58:43;101425.84;;;33.06;37.91
73767;BME280;62074;43.530;-5.646;2022-09-01T12:03:44;101424.25;;;31.56;40.93
73767;BME280;62074;43.530;-5.646;2022-09-01T12:06:18;101427.75;;;32.03;40.09
73767;BME280;62074;43.530;-5.646;2022-09-01T12:08:53;101419.81;;;34.52;35.34
73767;BME280;62074;43.530;-5.646;2022-09-01T12:11:22;101429.69;;;37.30;30.57
73767;BME280;62074;43.530;-5.646;2022-09-01T12:14:06;101437.91;;;38.55;28.39
73767;BME280;62074;43.530;-5.646;2022-09-01T12:16:33;101423.41;;;37.21;29.89
73767;BME280;62074;43.530;-5.646;2022-09-01T12:19:01;101437.19;;;35.92;31.99
73767;BME280;62074;43.530;-5.646;2022-09-01T12:21:39;101427.16;;;33.09;36.55
73767;BME280;62074;43.530;-5.646;2022-09-01T12:24:20;101445.66;;;35.54;32.94
73767;BME280;62074;43.530;-5.646;2022-09-01T12:26:47;101437.03;;;32.78;37.61
73767;BME280;62074;43.530;-5.646;2022-09-01T12:29:13;101439.22;;;32.07;38.56
73767;BME280;62074;43.530;-5.646;2022-09-01T12:31:40;101444.41;;;32.25;38.62
73767;BME280;62074;43.530;-5.646;2022-09-01T12:34:43;101428.88;;;34.14;34.80
73767;BME280;62074;43.530;-5.646;2022-09-01T12:37:19;101428.25;;;33.28;36.53
73767;BME280;62074;43.530;-5.646;2022-09-01T12:39:51;101440.47;;;33.81;35.24
73767;BME280;62074;43.530;-5.646;2022-09-01T12:44:45;101432.22;;;33.03;37.28
73767;BME280;62074;43.530;-5.646;2022-09-01T12:49:58;101430.09;;;31.80;40.83
73767;BME280;62074;43.530;-5.646;2022-09-01T12:52:26;101430.19;;;33.65;37.53
73767;BME280;62074;43.530;-5.646;2022-09-01T12:55:19;101418.28;;;33.47;36.45
73767;BME280;62074;43.530;-5.646;2022-09-01T12:57:49;101423.00;;;33.43;35.96
73767;BME280;62074;43.530;-5.646;2022-09-01T13:00:25;101412.63;;;33.75;36.25
73767;BME280;62074;43.530;-5.646;2022-09-01T13:03:10;101425.00;;;33.18;37.28
73767;BME280;62074;43.530;-5.646;2022-09-01T13:05:42;101421.25;;;31.82;39.30
73767;BME280;62074;43.530;-5.646;2022-09-01T13:08:22;101425.63;;;32.66;38.17
73767;BME280;62074;43.530;-5.646;2022-09-01T13:10:55;101423.94;;;32.53;38.47
73767;BME280;62074;43.530;-5.646;2022-09-01T13:13:23;101426.66;;;32.49;38.63
73767;BME280;62074;43.530;-5.646;2022-09-01T13:15:51;101410.41;;;32.71;38.01
73767;BME280;62074;43.530;-5.646;2022-09-01T13:18:22;101433.38;;;33.63;36.61
73767;BME280;62074;43.530;-5.646;2022-09-01T13:20:48;101434.63;;;32.68;38.34
73767;BME280;62074;43.530;-5.646;2022-09-01T13:23:15;101419.00;;;32.62;38.52
73767;BME280;62074;43.530;-5.646;2022-09-01T13:25:41;101435.88;;;33.04;37.88
73767;BME280;62074;43.530;-5.646;2022-09-01T13:28:11;101448.00;;;31.72;37.57
73767;BME280;62074;43.530;-5.646;2022-09-01T13:30:37;101448.69;;;31.69;38.35
73767;BME280;62074;43.530;-5.646;2022-09-01T13:33:03;101442.59;;;32.00;39.08
73767;BME280;62074;43.530;-5.646;2022-09-01T13:35:29;101441.59;;;31.25;38.82
73767;BME280;62074;43.530;-5.646;2022-09-01T13:37:55;101444.81;;;31.44;38.32
73767;BME280;62074;43.530;-5.646;2022-09-01T13:40:21;101446.97;;;31.98;37.90
73767;BME280;62074;43.530;-5.646;2022-09-01T13:42:50;101447.31;;;31.46;38.68
73767;BME280;62074;43.530;-5.646;2022-09-01T13:45:17;101442.69;;;31.91;39.09
73767;BME280;62074;43.530;-5.646;2022-09-01T13:47:45;101448.69;;;32.32;38.39
73767;BME280;62074;43.530;-5.646;2022-09-01T13:50:13;101441.91;;;32.03;39.24
73767;BME280;62074;43.530;-5.646;2022-09-01T13:52:42;101442.34;;;31.43;39.08
73767;BME280;62074;43.530;-5.646;2022-09-01T13:55:13;101455.47;;;31.09;40.87